ADDS METAR Data INFO
IDs: Format: Raw Decoded Include TAF

Data at: 0753 UTC 17 Oct 2017

KCVG 170652Z 00000KT 10SM CLR 05/05 A3031 RMK AO2 SLP264 T00500050
KCVG 170552Z 00000KT 10SM CLR 04/04 A3031 RMK AO2 SLP264 T00440044 10117 20044 58003
KCVG 170452Z 00000KT 10SM CLR 06/04 A3031 RMK AO2 SLP264 T00560044 401670050
KCVG 170352Z 00000KT 10SM CLR 07/04 A3032 RMK AO2 SLP265 T00720044
KCVG 170252Z 00000KT 10SM CLR 07/06 A3032 RMK AO2 SLP266 T00720056 53009
KCVG 170152Z 00000KT 10SM CLR 08/04 A3031 RMK AO2 SLP264 T00830044
KCVG 170052Z 00000KT 7SM CLR 08/05 A3030 RMK AO2 SLP259 T00830050
KCVG 162352Z 33003KT 10SM CLR 11/04 A3029 RMK AO2 SLP257 T01110044 10167 20106 53003
KCVG 162252Z 34004KT 10SM FEW060 14/02 A3028 RMK AO2 SLP252 T01390022
KCVG 162152Z 34005KT 10SM SCT060 15/03 A3027 RMK AO2 SLP250 T01500028
KCVG 162052Z 33007KT 10SM SCT060 14/03 A3028 RMK AO2 SLP253 T01440033 56008
KCVG 161952Z 34007KT 10SM SCT055 16/02 A3028 RMK AO2 SLP253 T01610022
KCVG 161852Z VRB06KT 10SM SCT050 16/04 A3029 RMK AO2 SLP254 T01610039
KCVG 161752Z 01007KT 10SM SCT040 BKN055 14/06 A3031 RMK AO2 SLP261 T01440056 10161 20072 58006
KCVG 161652Z 35009KT 10SM SCT055 15/07 A3033 RMK AO2 SLP267 T01500067
KCVG 161552Z 32005KT 10SM FEW026 BKN032 14/07 A3032 RMK AO2 SLP267 T01390072
KCVG 161452Z 33007KT 10SM FEW021 SCT044 13/08 A3032 RMK AO2 SLP267 T01330083 51016
KCVG 161352Z 35007KT 10SM FEW011 BKN047 11/09 A3032 RMK AO2 SLP266 T01060089
KCVG 161252Z 34005KT 10SM BKN050 09/09 A3030 RMK AO2 SLP259 T00940089
KCVG 161152Z 33006KT 10SM FEW060 08/08 A3028 RMK AO2 SLP251 70008 T00780078 10106 20078 53015
KCVG 161052Z 32006KT 10SM CLR 08/08 A3026 RMK AO2 SLP245 T00830078
KCVG 160952Z 32005KT 10SM FEW050 09/08 A3024 RMK AO2 SLP240 T00890078
KCVG 160852Z 34005KT 10SM FEW055 09/08 A3023 RMK AO2 SLP235 T00890078 51006
KCVG 160752Z 33007KT 10SM SCT055 09/08 A3023 RMK AO2 SLP234 T00940078
KCVG 160652Z 31006KT 10SM SCT050 10/08 A3022 RMK AO2 SLP230 T01000078
KCVG 160552Z 32006KT 10SM FEW025 11/08 A3021 RMK AO2 SLP224 T01060078 10122 20100 51007
KCVG 160540Z 31005KT 10SM SCT027 11/08 A3021 RMK AO2 T01060078
KCVG 160521Z 30005KT 10SM BKN027 BKN048 11/08 A3021 RMK AO2 T01110078
KCVG 160452Z 31007KT 10SM FEW024 OVC046 11/08 A3021 RMK AO2 SLP223 BINOVC T01110078 402560111
KCVG 160352Z 31010KT 10SM FEW027 OVC043 12/07 A3020 RMK AO2 SLP222 BINOVC OHD T01170072
KCVG 160252Z 30009KT 10SM OVC039 12/07 A3019 RMK AO2 SLP218 THN SPTS INOVC T01170072 51023
KCVG 160152Z 31009KT 10SM OVC035 12/07 A3017 RMK AO2 SLP210 T01170072
KCVG 160123Z 31011KT 10SM OVC035 12/07 A3016 RMK AO2 T01170067
KCVG 160052Z 31014KT 10SM BKN029 OVC036 12/07 A3015 RMK AO2 SLP204 T01170067
KCVG 152352Z 32014KT 10SM OVC027 12/08 A3012 RMK AO2 PK WND 33026/2322 SLP194 60008 T01220078 10250 20122 51031
KCVG 152252Z 31015KT 10SM OVC027 12/08 A3009 RMK AO2 PK WND 33026/2219 SLP183 T01220083
KCVG 152224Z 31019G26KT 10SM OVC023 12/09 A3008 RMK AO2 PK WND 33026/2219 T01220094
KCVG 152152Z 32018KT 10SM BKN012 OVC019 13/11 A3006 RMK AO2 PK WND 32029/2102 RAE23 SLP175 P0001 T01280111
KCVG 152130Z 30015KT 10SM BKN010 OVC015 13/12 A3005 RMK AO2 PK WND 32029/2102 RAE23 P0000 T01280122
KCVG 152052Z 32026G30KT 10SM -RA BKN009 BKN016 OVC021 14/14 A3003 RMK AO2 PK WND 31030/2051 RAE1959B24 SLP161 P0003 60007 T01440144 51031
KCVG 152048Z 31016G23KT 260V340 7SM -RA SCT009 BKN014 OVC043 16/16 A3002 RMK AO2 RAE1959B24 P0003
KCVG 152027Z 30013KT 2 1/2SM R18C/6000VP6000FT -RA BR FEW014 SCT019 OVC043 16/16 A3001 RMK AO2 SFC VIS 5 RAE1959B24 P0001 T01560156